Time;durP1;ratioP1;P1;durP2;ratioP2;P2;SDS_P1;SDS_P2;PMS_P1;PMS_P2;Temp;Humidity;BMP_temperature;BMP_pressure;BME280_temperature;BME280_humidity;BME280_pressure;Samples;Min_cycle;Max_cycle;Signal;HPM_P1;HPM_P2
2024/03/10 00:01:22;;;;;;;12.93;10.10;;;7.90;99.90;;;;;;5057154;28;20437;-58
2024/03/10 00:03:50;;;;;;;14.27;11.13;;;7.70;1.00;;;;;;5056724;28;20493;-57
2024/03/10 00:06:18;;;;;;;11.53;10.03;;;7.60;1.00;;;;;;5056959;28;20466;-58
2024/03/10 00:08:46;;;;;;;12.00;9.80;;;7.50;1.00;;;;;;5057211;28;20783;-57
2024/03/10 00:11:14;;;;;;;13.70;11.80;;;7.40;1.00;;;;;;5057098;28;20911;-58
2024/03/10 00:13:42;;;;;;;12.80;11.20;;;7.30;1.00;;;;;;5059243;28;20545;-58
2024/03/10 00:16:11;;;;;;;13.10;10.70;;;7.20;1.00;;;;;;5069322;28;20483;-58
2024/03/10 00:18:41;;;;;;;13.50;11.17;;;7.30;5.30;;;;;;5056263;28;20457;-64
2024/03/10 00:21:16;;;;;;;12.40;10.53;;;7.20;73.00;;;;;;5056609;28;20512;-64
2024/03/10 00:23:43;;;;;;;12.00;9.97;;;7.20;75.40;;;;;;5056183;28;20494;-64
2024/03/10 00:26:11;;;;;;;13.07;10.20;;;7.20;99.90;;;;;;5056186;28;20766;-64
2024/03/10 00:28:38;;;;;;;11.70;9.50;;;7.20;99.90;;;;;;5056448;28;20961;-64
2024/03/10 00:31:08;;;;;;;14.17;10.90;;;7.10;99.90;;;;;;5056435;28;20508;-64
2024/03/10 00:33:38;;;;;;;14.27;10.30;;;7.00;99.90;;;;;;5056448;28;20462;-64
2024/03/10 00:36:06;;;;;;;12.43;10.73;;;7.00;99.90;;;;;;5056395;28;20520;-63
2024/03/10 00:38:33;;;;;;;13.00;10.00;;;6.90;99.90;;;;;;5056756;28;20463;-63
2024/03/10 00:41:00;;;;;;;13.83;10.80;;;6.90;1.00;;;;;;5056586;28;20766;-64
2024/03/10 00:43:28;;;;;;;10.70;9.27;;;6.80;1.00;;;;;;5059473;28;20888;-64
2024/03/10 00:45:56;;;;;;;12.23;10.33;;;6.70;1.00;;;;;;5060396;28;20907;-63
2024/03/10 00:48:23;;;;;;;12.50;10.50;;;6.70;1.00;;;;;;5060485;28;20779;-64
2024/03/10 00:50:52;;;;;;;14.27;10.50;;;6.60;1.00;;;;;;5060264;28;20462;-64
2024/03/10 00:53:19;;;;;;;12.53;10.20;;;6.50;1.00;;;;;;5075357;28;20917;-64
2024/03/10 00:55:47;;;;;;;13.13;10.23;;;6.40;8.50;;;;;;5079471;28;20910;-63
2024/03/10 00:58:15;;;;;;;15.07;10.77;;;6.40;1.00;;;;;;5080080;28;20818;-64
2024/03/10 01:00:42;;;;;;;11.97;9.77;;;6.40;75.00;;;;;;5080166;28;20453;-64
2024/03/10 01:03:12;;;;;;;12.50;10.03;;;6.40;84.10;;;;;;5079623;28;20457;-63
2024/03/10 01:05:39;;;;;;;13.43;11.20;;;6.30;99.90;;;;;;5079903;28;20493;-63
2024/03/10 01:08:08;;;;;;;15.80;11.73;;;6.30;99.90;;;;;;5079890;28;20461;-64
2024/03/10 01:10:36;;;;;;;13.63;10.80;;;6.30;99.90;;;;;;5080151;28;20461;-64
2024/03/10 01:13:03;;;;;;;12.27;9.80;;;6.30;99.90;;;;;;5079476;28;20460;-63
2024/03/10 01:15:31;;;;;;;12.27;10.53;;;6.40;99.90;;;;;;5079483;28;20488;-64
2024/03/10 01:17:59;;;;;;;13.67;10.83;;;6.60;99.90;;;;;;5079594;28;20468;-63
2024/03/10 01:20:27;;;;;;;13.13;10.70;;;6.60;99.90;;;;;;5079658;28;20461;-63
2024/03/10 01:22:54;;;;;;;11.47;9.53;;;6.70;99.90;;;;;;5079457;28;20464;-64
2024/03/10 01:25:23;;;;;;;12.87;9.90;;;6.90;13.60;;;;;;5079164;28;20899;-57
2024/03/10 01:27:50;;;;;;;13.07;10.60;;;7.00;1.00;;;;;;5079331;28;20521;-57
2024/03/10 01:30:18;;;;;;;12.53;10.70;;;7.20;1.00;;;;;;5079748;28;20933;-58
2024/03/10 01:32:46;;;;;;;15.83;9.80;;;7.30;1.00;;;;;;5078952;28;20461;-58
2024/03/10 01:35:13;;;;;;;14.20;10.23;;;7.50;1.00;;;;;;5079143;28;20493;-58
2024/03/10 01:37:41;;;;;;;12.60;9.60;;;7.50;1.00;;;;;;5079473;28;20515;-59
2024/03/10 01:40:09;;;;;;;11.53;9.50;;;7.60;1.00;;;;;;5079311;28;20461;-58
2024/03/10 01:42:38;;;;;;;12.77;10.40;;;7.70;1.00;;;;;;5079022;28;20454;-59
2024/03/10 01:45:07;;;;;;;11.57;8.70;;;7.80;99.90;;;;;;5079451;28;20501;-58
2024/03/10 01:47:34;;;;;;;10.53;8.40;;;7.80;99.90;;;;;;5079207;28;20742;-59
2024/03/10 01:50:05;;;;;;;12.03;8.97;;;7.90;99.90;;;;;;5079249;28;20485;-58
2024/03/10 01:52:34;;;;;;;9.10;8.13;;;7.90;99.90;;;;;;5078921;28;20531;-58
2024/03/10 01:55:02;;;;;;;12.27;9.63;;;8.10;99.90;;;;;;5078117;28;20464;-58
2024/03/10 01:57:30;;;;;;;10.73;8.70;;;8.10;99.90;;;;;;5079368;28;20457;-58
2024/03/10 01:59:59;;;;;;;11.17;9.20;;;8.20;99.90;;;;;;5079036;28;20465;-58
2024/03/10 02:02:27;;;;;;;12.90;8.80;;;8.20;99.90;;;;;;5078191;28;20457;-58
2024/03/10 02:04:54;;;;;;;11.70;8.87;;;8.10;99.90;;;;;;5078372;28;20540;-58
2024/03/10 02:07:22;;;;;;;11.40;9.17;;;8.10;99.90;;;;;;5078805;28;20813;-57
2024/03/10 02:09:50;;;;;;;11.90;9.00;;;8.10;99.90;;;;;;5078945;28;20564;-58
2024/03/10 02:12:17;;;;;;;12.50;9.70;;;8.10;99.90;;;;;;5078842;28;20905;-58
2024/03/10 02:15:00;;;;;;;10.50;9.20;;;8.10;99.90;;;;;;5078887;28;20453;-58
2024/03/10 02:17:27;;;;;;;12.60;8.93;;;8.10;99.90;;;;;;5078885;28;20507;-58
2024/03/10 02:19:56;;;;;;;10.57;9.47;;;8.10;99.90;;;;;;5078590;28;20485;-57
2024/03/10 02:22:24;;;;;;;12.17;9.50;;;8.20;99.90;;;;;;5078622;28;20911;-57
2024/03/10 02:24:53;;;;;;;10.53;8.60;;;8.20;99.90;;;;;;5078083;28;20587;-57
2024/03/10 02:27:24;;;;;;;10.23;9.13;;;8.20;99.90;;;;;;5077996;28;20543;-64
2024/03/10 02:30:18;;;;;;;11.57;9.13;;;8.20;99.90;;;;;;5078485;28;20551;-64
2024/03/10 02:49:15;;;;;;;10.03;8.90;;;8.00;99.90;;;;;;5077417;28;20428;-63
2024/03/10 02:51:43;;;;;;;9.10;8.13;;;7.90;99.90;;;;;;5077606;28;20844;-64
2024/03/10 02:54:10;;;;;;;10.70;9.27;;;7.90;99.90;;;;;;5077773;28;20457;-64
2024/03/10 02:56:39;;;;;;;9.83;8.83;;;7.90;99.90;;;;;;5077874;28;20747;-64
2024/03/10 02:59:09;;;;;;;11.23;9.03;;;7.90;99.90;;;;;;5077575;28;20457;-64
2024/03/10 03:01:38;;;;;;;11.10;8.13;;;7.90;99.90;;;;;;5077770;28;20462;-64
2024/03/10 03:04:06;;;;;;;11.87;9.03;;;7.80;99.90;;;;;;5077868;28;20464;-64
2024/03/10 03:06:34;;;;;;;11.13;8.90;;;7.80;99.90;;;;;;5076891;28;20830;-64
2024/03/10 03:09:04;;;;;;;11.47;8.83;;;7.70;99.90;;;;;;5077108;28;20497;-64
2024/03/10 03:11:32;;;;;;;9.07;7.70;;;7.70;99.90;;;;;;5077324;28;20462;-64
2024/03/10 03:14:01;;;;;;;9.10;8.00;;;7.70;99.90;;;;;;5077472;28;20959;-64
2024/03/10 03:16:30;;;;;;;10.27;8.60;;;7.60;99.90;;;;;;5077425;28;20496;-64
2024/03/10 03:18:57;;;;;;;11.30;9.87;;;7.50;99.90;;;;;;5077478;28;20461;-64
2024/03/10 03:21:24;;;;;;;11.33;8.93;;;7.40;1.00;;;;;;5077478;28;20753;-64
2024/03/10 03:23:53;;;;;;;12.43;9.37;;;7.50;99.90;;;;;;5077450;28;20461;-64
2024/03/10 03:26:20;;;;;;;9.67;7.80;;;7.40;1.00;;;;;;5077066;28;20489;-64
2024/03/10 03:28:48;;;;;;;10.00;8.03;;;7.50;99.90;;;;;;5077320;28;20516;-64
2024/03/10 03:31:16;;;;;;;10.30;8.10;;;7.40;1.00;;;;;;5076926;28;20518;-64
2024/03/10 03:33:45;;;;;;;8.93;7.40;;;7.50;99.90;;;;;;5076765;28;20457;-64
2024/03/10 03:36:14;;;;;;;8.63;7.77;;;7.40;99.90;;;;;;5077428;28;20432;-64
2024/03/10 03:38:44;;;;;;;12.43;8.90;;;7.30;99.90;;;;;;5077241;28;20464;-63
2024/03/10 03:41:11;;;;;;;10.87;8.37;;;7.40;99.90;;;;;;5077105;28;20461;-63
2024/03/10 03:43:39;;;;;;;9.47;8.47;;;7.40;99.90;;;;;;5077363;28;20934;-64
2024/03/10 03:46:07;;;;;;;9.77;8.73;;;7.40;99.90;;;;;;5077188;28;20540;-64
2024/03/10 03:48:34;;;;;;;10.50;9.10;;;7.40;1.00;;;;;;5077428;28;20770;-64
2024/03/10 03:51:03;;;;;;;10.17;9.03;;;7.40;99.90;;;;;;5076891;28;20790;-64
2024/03/10 03:53:30;;;;;;;10.00;8.90;;;7.30;1.00;;;;;;5076755;28;20548;-64
2024/03/10 03:55:58;;;;;;;12.90;9.73;;;7.20;1.00;;;;;;5076916;28;20492;-64
2024/03/10 03:58:25;;;;;;;13.50;10.27;;;7.00;1.00;;;;;;5076977;28;20463;-64
2024/03/10 04:00:53;;;;;;;12.87;10.97;;;6.90;11.10;;;;;;5076781;28;20552;-64
2024/03/10 04:03:20;;;;;;;18.17;10.83;;;6.80;87.70;;;;;;5076967;28;20763;-64
2024/03/10 04:05:47;;;;;;;12.40;11.10;;;6.80;99.90;;;;;;5077047;28;20584;-64
2024/03/10 04:08:16;;;;;;;13.07;10.73;;;6.80;99.90;;;;;;5077243;28;20905;-64
2024/03/10 04:10:43;;;;;;;11.27;9.93;;;6.80;99.90;;;;;;5077030;28;20489;-63
2024/03/10 04:13:10;;;;;;;11.97;9.97;;;6.80;99.90;;;;;;5076806;28;20464;-63
2024/03/10 04:15:38;;;;;;;13.00;10.20;;;6.80;99.90;;;;;;5076939;28;20424;-63
2024/03/10 04:18:06;;;;;;;13.00;10.67;;;6.90;72.40;;;;;;5080064;28;20742;-63
2024/03/10 04:20:35;;;;;;;12.17;9.73;;;6.90;99.90;;;;;;5080336;28;20462;-63
2024/03/10 04:23:05;;;;;;;14.00;10.57;;;6.90;38.90;;;;;;5080567;28;20461;-63
2024/03/10 04:25:33;;;;;;;15.37;11.17;;;6.90;99.90;;;;;;5080792;28;20818;-65
2024/03/10 04:28:01;;;;;;;13.20;11.33;;;6.80;99.90;;;;;;5080370;28;20476;-63
2024/03/10 04:30:29;;;;;;;16.27;11.80;;;6.80;99.90;;;;;;5080425;28;20469;-64
2024/03/10 04:32:56;;;;;;;13.47;11.43;;;6.80;99.90;;;;;;5080601;28;20514;-64
2024/03/10 04:35:24;;;;;;;14.10;11.77;;;6.70;99.90;;;;;;5080164;28;20549;-63
2024/03/10 04:37:53;;;;;;;13.77;11.90;;;6.70;99.90;;;;;;5080247;28;20461;-63
2024/03/10 04:40:20;;;;;;;14.57;11.00;;;6.70;99.90;;;;;;5079836;28;20428;-63
2024/03/10 04:42:49;;;;;;;13.27;11.37;;;6.60;99.90;;;;;;5080322;28;20465;-63
2024/03/10 04:45:16;;;;;;;14.33;10.63;;;6.60;99.90;;;;;;5080133;28;20493;-63
2024/03/10 04:47:43;;;;;;;15.30;10.80;;;6.60;99.90;;;;;;5080185;28;20904;-63
2024/03/10 04:50:10;;;;;;;14.70;11.47;;;6.70;99.90;;;;;;5080197;28;20457;-64
2024/03/10 04:52:38;;;;;;;13.90;11.30;;;6.60;99.90;;;;;;5080238;28;20484;-63
2024/03/10 04:55:06;;;;;;;14.57;9.93;;;6.70;99.90;;;;;;5080104;28;20475;-63
2024/03/10 04:57:33;;;;;;;13.80;11.00;;;6.80;99.90;;;;;;5080318;28;20515;-63
2024/03/10 05:00:09;;;;;;;14.10;11.13;;;6.80;99.90;;;;;;5080324;28;20458;-63
2024/03/10 05:02:36;;;;;;;13.67;11.83;;;6.80;99.90;;;;;;5080328;28;20463;-63
2024/03/10 05:05:03;;;;;;;13.50;11.93;;;6.70;99.90;;;;;;5079706;28;20460;-63
2024/03/10 05:07:31;;;;;;;15.90;12.53;;;6.60;99.90;;;;;;5079617;28;20532;-63
2024/03/10 05:09:58;;;;;;;14.60;12.43;;;6.60;99.90;;;;;;5079777;28;20496;-63
2024/03/10 05:12:25;;;;;;;13.77;11.83;;;6.60;99.90;;;;;;5079516;28;20485;-63
2024/03/10 05:14:53;;;;;;;14.67;12.67;;;6.50;99.90;;;;;;5079472;28;20552;-64
2024/03/10 05:17:21;;;;;;;19.93;13.00;;;6.50;99.90;;;;;;5079285;28;20510;-64
2024/03/10 05:19:49;;;;;;;13.97;12.40;;;6.40;99.90;;;;;;5079629;28;20457;-63
2024/03/10 05:22:17;;;;;;;15.50;13.10;;;6.40;99.90;;;;;;5079869;28;20511;-63
2024/03/10 05:24:45;;;;;;;16.30;12.40;;;6.40;99.90;;;;;;5079580;28;20544;-63
2024/03/10 05:27:15;;;;;;;17.70;13.43;;;6.30;99.90;;;;;;5079248;28;20536;-64
2024/03/10 05:29:42;;;;;;;15.90;12.47;;;6.30;1.00;;;;;;5078450;28;20571;-64
2024/03/10 05:32:09;;;;;;;18.10;13.00;;;6.20;1.00;;;;;;5079557;28;20511;-63
2024/03/10 05:34:39;;;;;;;14.07;12.07;;;6.10;1.00;;;;;;5079776;28;20487;-63
2024/03/10 05:37:06;;;;;;;15.57;12.10;;;6.10;1.00;;;;;;5079293;28;20454;-63
2024/03/10 05:39:33;;;;;;;17.07;13.10;;;6.10;1.00;;;;;;5079511;28;20913;-63
2024/03/10 05:42:01;;;;;;;13.30;11.90;;;6.10;1.00;;;;;;5079169;28;20762;-63
2024/03/10 05:44:28;;;;;;;14.70;11.90;;;6.10;1.00;;;;;;5079350;28;20484;-63
2024/03/10 05:46:56;;;;;;;14.57;12.97;;;6.00;1.00;;;;;;5079332;28;20532;-63
2024/03/10 05:49:23;;;;;;;15.60;12.63;;;6.00;1.00;;;;;;5078718;28;20458;-63
2024/03/10 05:51:51;;;;;;;15.27;12.47;;;6.00;1.00;;;;;;5079364;28;20457;-63
2024/03/10 05:54:21;;;;;;;15.77;12.37;;;5.90;1.00;;;;;;5078100;28;20469;-63
2024/03/10 05:56:48;;;;;;;16.17;12.23;;;5.90;1.00;;;;;;5078305;28;20457;-63
2024/03/10 05:59:15;;;;;;;14.10;11.57;;;5.90;1.00;;;;;;5078749;28;20461;-63
2024/03/10 06:01:45;;;;;;;15.80;11.70;;;5.90;1.00;;;;;;5078854;28;20545;-63
2024/03/10 06:04:12;;;;;;;17.40;12.60;;;5.80;1.00;;;;;;5079004;28;20461;-63
2024/03/10 06:06:39;;;;;;;14.93;11.60;;;5.80;1.00;;;;;;5078342;28;20526;-63
2024/03/10 06:09:10;;;;;;;14.70;12.67;;;5.80;30.50;;;;;;5078615;28;20913;-63
2024/03/10 06:11:37;;;;;;;14.43;12.30;;;5.80;1.00;;;;;;5078634;28;20836;-63
2024/03/10 06:14:05;;;;;;;14.70;12.40;;;5.80;1.00;;;;;;5078738;28;20944;-63
2024/03/10 06:16:32;;;;;;;16.13;12.73;;;5.70;1.00;;;;;;5078650;28;20763;-63
2024/03/10 06:27:15;;;;;;;15.07;12.57;;;5.60;99.30;;;;;;5077590;28;20550;-63
2024/03/10 06:29:42;;;;;;;15.90;12.57;;;5.60;99.90;;;;;;5078518;28;20891;-63
2024/03/10 06:32:09;;;;;;;14.37;12.13;;;5.60;56.50;;;;;;5077903;28;20468;-63
2024/03/10 06:34:37;;;;;;;15.60;12.13;;;5.60;99.90;;;;;;5078539;28;20484;-63
2024/03/10 06:37:04;;;;;;;16.07;13.17;;;5.70;99.90;;;;;;5078244;28;20759;-63
2024/03/10 06:39:33;;;;;;;15.17;12.73;;;5.70;99.90;;;;;;5077971;28;20501;-63
2024/03/10 06:42:00;;;;;;;15.80;12.57;;;5.70;99.90;;;;;;5078214;28;20500;-63
2024/03/10 06:44:27;;;;;;;19.60;12.70;;;5.80;99.90;;;;;;5078075;28;20467;-63
2024/03/10 06:46:55;;;;;;;16.67;13.57;;;5.80;1.00;;;;;;5077272;28;20879;-63
2024/03/10 06:49:22;;;;;;;14.67;12.90;;;5.80;95.40;;;;;;5077588;28;20468;-63
2024/03/10 06:51:50;;;;;;;14.73;12.43;;;5.90;99.90;;;;;;5077824;28;20536;-63
2024/03/10 06:54:17;;;;;;;18.67;12.90;;;6.00;99.90;;;;;;5077994;28;20540;-63
2024/03/10 06:56:46;;;;;;;16.00;12.87;;;6.00;99.90;;;;;;5078018;28;20454;-63
2024/03/10 06:59:13;;;;;;;17.50;14.07;;;6.00;99.90;;;;;;5077535;28;20555;-63
2024/03/10 07:01:44;;;;;;;15.33;12.77;;;6.00;99.90;;;;;;5077449;28;20461;-63
2024/03/10 07:04:11;;;;;;;17.10;13.63;;;6.10;99.90;;;;;;5077811;28;20464;-63
2024/03/10 07:06:39;;;;;;;17.60;13.70;;;6.10;99.90;;;;;;5077911;28;20491;-63
2024/03/10 07:09:09;;;;;;;15.03;12.37;;;6.10;99.90;;;;;;5077672;28;20482;-63
2024/03/10 07:11:35;;;;;;;15.67;12.80;;;6.20;99.90;;;;;;5077684;28;20465;-63
2024/03/10 07:14:04;;;;;;;14.80;13.20;;;6.20;99.50;;;;;;5077537;28;20461;-63
2024/03/10 07:16:32;;;;;;;14.80;12.93;;;6.30;90.00;;;;;;5077459;28;20523;-63
2024/03/10 07:18:59;;;;;;;15.00;12.17;;;6.30;63.50;;;;;;5076983;28;20468;-63
2024/03/10 07:21:27;;;;;;;13.90;12.07;;;6.40;99.90;;;;;;5077571;28;20754;-63
2024/03/10 07:23:54;;;;;;;14.93;12.40;;;6.40;36.70;;;;;;5077044;28;20488;-63
2024/03/10 07:26:21;;;;;;;16.83;12.80;;;6.40;98.10;;;;;;5077316;28;20497;-63
2024/03/10 07:28:49;;;;;;;16.17;12.90;;;6.40;23.20;;;;;;5077089;28;20481;-63
2024/03/10 07:31:18;;;;;;;16.80;13.60;;;6.40;6.70;;;;;;5077378;28;20980;-63
2024/03/10 07:33:45;;;;;;;15.13;12.70;;;6.40;13.50;;;;;;5077242;28;20461;-63
2024/03/10 07:36:13;;;;;;;16.07;11.80;;;6.40;1.00;;;;;;5077518;28;20453;-63
2024/03/10 07:38:40;;;;;;;14.10;11.20;;;6.50;59.40;;;;;;5077368;28;20534;-63
2024/03/10 07:41:08;;;;;;;16.40;12.40;;;6.50;43.30;;;;;;5077072;28;20531;-63
2024/03/10 07:43:36;;;;;;;16.73;12.47;;;6.50;55.40;;;;;;5076780;28;20522;-63
2024/03/10 07:46:05;;;;;;;16.00;12.60;;;6.60;82.70;;;;;;5077126;28;20499;-63
2024/03/10 07:48:35;;;;;;;14.43;12.93;;;6.60;47.80;;;;;;5077216;28;20492;-63
2024/03/10 07:51:04;;;;;;;14.43;12.40;;;6.70;23.10;;;;;;5076614;28;20883;-63
2024/03/10 07:53:31;;;;;;;13.90;12.40;;;6.80;1.30;;;;;;5076855;28;20465;-63
2024/03/10 07:55:59;;;;;;;13.37;11.93;;;6.80;1.00;;;;;;5077241;28;20493;-63
2024/03/10 07:58:26;;;;;;;16.07;12.70;;;6.80;1.00;;;;;;5077345;28;20464;-63
2024/03/10 08:00:55;;;;;;;14.93;12.03;;;6.90;1.00;;;;;;5076541;28;20452;-63
2024/03/10 08:03:23;;;;;;;14.00;12.37;;;7.00;1.00;;;;;;5075526;28;20779;-63
2024/03/10 08:05:52;;;;;;;13.87;12.37;;;7.10;1.00;;;;;;5075618;28;20462;-63
2024/03/10 08:08:19;;;;;;;13.23;11.83;;;7.20;1.00;;;;;;5075558;28;20465;-63
2024/03/10 08:10:47;;;;;;;15.80;11.90;;;7.20;1.00;;;;;;5075007;28;20519;-63
2024/03/10 08:13:14;;;;;;;14.20;11.93;;;7.20;1.00;;;;;;5075295;28;20472;-63
2024/03/10 08:15:45;;;;;;;17.13;12.43;;;7.20;1.00;;;;;;5075149;28;20464;-63
2024/03/10 08:18:12;;;;;;;15.07;12.80;;;7.30;1.00;;;;;;5075384;28;20875;-63
2024/03/10 08:20:41;;;;;;;16.43;12.27;;;7.40;1.00;;;;;;5075969;28;20468;-63
2024/03/10 08:23:09;;;;;;;15.20;12.70;;;7.50;1.00;;;;;;5076400;28;20462;-63
2024/03/10 08:25:37;;;;;;;16.93;12.90;;;7.60;1.00;;;;;;5077117;28;20510;-63
2024/03/10 08:28:05;;;;;;;13.53;11.10;;;7.70;1.00;;;;;;5076803;28;20501;-63
2024/03/10 08:30:33;;;;;;;14.10;11.67;;;7.90;1.00;;;;;;5076823;28;20968;-63
2024/03/10 08:33:00;;;;;;;14.43;12.80;;;8.00;99.90;;;;;;5076081;28;20500;-63
2024/03/10 08:35:27;;;;;;;13.87;12.00;;;8.00;99.90;;;;;;5076553;28;20586;-63
2024/03/10 08:37:55;;;;;;;14.63;13.03;;;8.10;99.90;;;;;;5076277;28;20453;-63
2024/03/10 08:40:24;;;;;;;16.20;13.80;;;8.00;99.90;;;;;;5072307;28;20465;-63
2024/03/10 08:42:52;;;;;;;14.97;12.80;;;8.10;99.90;;;;;;5056366;28;20461;-63
2024/03/10 08:45:20;;;;;;;14.97;12.17;;;8.10;99.90;;;;;;5056075;28;20895;-64
2024/03/10 08:47:48;;;;;;;13.00;11.60;;;8.10;99.90;;;;;;5056483;28;20493;-63
2024/03/10 08:50:16;;;;;;;16.90;12.40;;;8.10;99.90;;;;;;5056621;28;20469;-63
2024/03/10 08:52:44;;;;;;;16.10;13.20;;;8.10;99.90;;;;;;5056675;28;20458;-63
2024/03/10 08:55:15;;;;;;;14.97;11.53;;;8.10;99.90;;;;;;5056300;28;20556;-63
2024/03/10 08:57:44;;;;;;;15.60;11.50;;;8.20;99.90;;;;;;5056495;28;20476;-63
2024/03/10 09:00:13;;;;;;;15.70;12.50;;;8.40;99.90;;;;;;5056647;28;20458;-64
2024/03/10 09:02:41;;;;;;;14.73;12.77;;;8.70;99.90;;;;;;5056245;28;20458;-64
2024/03/10 09:05:12;;;;;;;15.20;12.43;;;9.00;99.90;;;;;;5059364;28;20575;-63
2024/03/10 09:07:39;;;;;;;17.90;12.13;;;9.30;99.90;;;;;;5059988;28;20490;-63
2024/03/10 09:10:08;;;;;;;14.57;12.03;;;9.40;1.00;;;;;;5060109;28;20458;-64
2024/03/10 09:12:35;;;;;;;12.93;11.63;;;9.70;1.00;;;;;;5059950;28;20500;-63
2024/03/10 09:15:05;;;;;;;13.40;12.00;;;9.80;1.00;;;;;;5059540;28;20459;-63
2024/03/10 09:17:32;;;;;;;13.57;11.67;;;10.00;1.00;;;;;;5059779;28;20817;-64
2024/03/10 09:20:00;;;;;;;13.70;11.60;;;10.40;1.00;;;;;;5059485;28;20458;-63
2024/03/10 09:22:27;;;;;;;12.03;10.73;;;10.80;99.90;;;;;;5058320;28;20458;-62
2024/03/10 09:24:55;;;;;;;12.60;11.40;;;10.90;99.90;;;;;;5058767;28;20458;-63
2024/03/10 09:27:22;;;;;;;13.00;11.50;;;10.90;99.90;;;;;;5058912;28;20500;-63
2024/03/10 09:29:51;;;;;;;13.93;11.33;;;11.00;99.90;;;;;;5059536;28;20469;-64
2024/03/10 09:32:26;;;;;;;14.47;11.00;;;10.80;99.90;;;;;;5059297;28;20569;-63
2024/03/10 09:34:55;;;;;;;13.23;11.80;;;11.40;99.90;;;;;;5059257;28;20469;-63
2024/03/10 09:37:22;;;;;;;13.10;11.07;;;11.70;99.90;;;;;;5059761;28;20489;-63
2024/03/10 09:39:50;;;;;;;12.20;10.90;;;12.20;99.90;;;;;;5059324;28;20458;-63
2024/03/10 09:42:17;;;;;;;14.23;11.73;;;13.00;99.90;;;;;;5059592;28;20462;-64
2024/03/10 09:44:45;;;;;;;13.13;11.83;;;13.40;99.90;;;;;;5059246;28;20828;-63
2024/03/10 09:47:18;;;;;;;14.27;10.70;;;13.70;99.90;;;;;;5060001;28;20500;-62
2024/03/10 09:49:48;;;;;;;12.00;10.80;;;13.80;34.60;;;;;;5059597;28;20501;-63
2024/03/10 09:52:18;;;;;;;11.67;10.27;;;14.00;1.00;;;;;;5059742;28;20509;-63
2024/03/10 09:54:45;;;;;;;13.00;10.53;;;14.30;1.00;;;;;;5058971;28;20564;-63
2024/03/10 09:57:13;;;;;;;12.00;10.73;;;14.50;1.00;;;;;;5059052;28;20461;-64
2024/03/10 09:59:43;;;;;;;12.50;10.90;;;14.70;1.00;;;;;;5059469;28;20462;-64
2024/03/10 10:02:18;;;;;;;11.40;10.20;;;14.80;1.00;;;;;;5059215;28;20465;-63
2024/03/10 10:04:56;;;;;;;13.13;11.73;;;14.80;1.00;;;;;;5058352;28;20501;-64
2024/03/10 10:07:26;;;;;;;13.17;11.40;;;15.00;1.00;;;;;;5058467;28;20494;-64
2024/03/10 10:09:58;;;;;;;14.43;12.30;;;15.30;1.00;;;;;;5058930;28;20469;-64
2024/03/10 10:12:27;;;;;;;13.07;11.87;;;15.30;1.00;;;;;;5059091;28;20806;-62
2024/03/10 10:14:55;;;;;;;12.73;11.53;;;15.00;99.90;;;;;;5057898;28;20466;-63
2024/03/10 10:17:25;;;;;;;12.87;11.57;;;14.90;99.90;;;;;;5075256;28;20449;-64
2024/03/10 10:19:56;;;;;;;12.77;11.57;;;15.10;99.90;;;;;;5079231;28;20461;-64
2024/03/10 10:22:23;;;;;;;12.33;11.07;;;15.30;99.90;;;;;;5078607;28;20506;-64
2024/03/10 10:25:03;;;;;;;13.20;11.83;;;15.10;99.90;;;;;;5078240;28;20507;-63
2024/03/10 10:27:31;;;;;;;15.23;12.27;;;14.60;99.90;;;;;;5078252;28;20500;-63
2024/03/10 10:29:58;;;;;;;12.77;11.50;;;14.80;99.90;;;;;;5078526;28;20787;-65
2024/03/10 10:32:26;;;;;;;12.20;11.00;;;15.10;99.90;;;;;;5077608;28;20718;-64
2024/03/10 10:34:57;;;;;;;13.20;11.93;;;15.50;99.90;;;;;;5077026;28;20464;-64
2024/03/10 10:37:28;;;;;;;13.07;11.73;;;15.90;99.90;;;;;;5077595;28;20463;-64
2024/03/10 10:39:56;;;;;;;12.93;11.67;;;16.00;99.90;;;;;;5077888;28;20886;-64
2024/03/10 10:42:25;;;;;;;13.90;12.50;;;16.20;99.90;;;;;;5077961;28;20461;-64
2024/03/10 10:44:53;;;;;;;12.23;10.97;;;16.00;99.90;;;;;;5077103;28;20461;-64
2024/03/10 10:47:21;;;;;;;12.57;11.33;;;15.60;1.00;;;;;;5077548;28;20496;-65
2024/03/10 10:49:49;;;;;;;13.27;11.97;;;15.20;1.00;;;;;;5077574;28;20770;-64
2024/03/10 10:52:19;;;;;;;13.70;12.40;;;15.00;1.00;;;;;;5077981;28;20457;-65
2024/03/10 10:54:46;;;;;;;14.77;11.53;;;15.30;1.00;;;;;;5077374;28;20461;-64
2024/03/10 10:57:15;;;;;;;14.40;13.10;;;15.50;1.00;;;;;;5077734;28;20466;-64
2024/03/10 10:59:48;;;;;;;14.83;13.33;;;15.60;1.00;;;;;;5077437;28;20554;-65
2024/03/10 11:02:19;;;;;;;15.33;13.23;;;15.50;1.00;;;;;;5077833;28;20837;-64
2024/03/10 11:04:48;;;;;;;14.40;12.83;;;15.30;1.00;;;;;;5077283;28;20507;-65
2024/03/10 11:07:18;;;;;;;15.00;13.50;;;15.30;1.00;;;;;;5077515;28;20543;-65
2024/03/10 11:09:46;;;;;;;14.70;13.20;;;15.60;1.00;;;;;;5077447;28;20982;-64
2024/03/10 11:12:21;;;;;;;15.00;13.60;;;16.00;1.00;;;;;;5077810;28;20479;-65
2024/03/10 11:14:51;;;;;;;14.60;13.10;;;16.20;1.00;;;;;;5077357;28;20510;-65
2024/03/10 11:17:21;;;;;;;16.17;14.57;;;16.20;1.00;;;;;;5077482;28;20453;-66
2024/03/10 11:19:50;;;;;;;15.00;13.60;;;16.20;1.00;;;;;;5076582;28;20492;-63
2024/03/10 11:22:25;;;;;;;18.23;13.60;;;16.00;1.00;;;;;;5074150;28;20758;-65
2024/03/10 11:25:16;;;;;;;14.60;13.20;;;16.20;1.00;;;;;;5057216;28;20488;-66
2024/03/10 11:27:44;;;;;;;15.07;13.60;;;16.60;1.00;;;;;;5052618;28;20504;-63
2024/03/10 11:30:33;;;;;;;15.90;14.30;;;16.80;1.00;;;;;;5055878;28;20817;-65
2024/03/10 11:33:05;;;;;;;14.10;12.80;;;16.90;1.00;;;;;;5047295;28;20474;-64
2024/03/10 11:35:36;;;;;;;16.40;14.80;;;17.10;1.00;;;;;;5056369;28;20457;-64
2024/03/10 11:38:09;;;;;;;14.80;13.40;;;16.60;1.00;;;;;;5061936;28;20461;-65
2024/03/10 11:40:40;;;;;;;13.93;12.63;;;16.60;1.00;;;;;;5076066;28;20501;-64
2024/03/10 11:43:10;;;;;;;16.97;15.27;;;16.50;1.00;;;;;;5073673;28;20473;-64
2024/03/10 11:45:40;;;;;;;17.00;15.30;;;16.40;1.00;;;;;;5073703;28;20514;-64
2024/03/10 11:48:08;;;;;;;16.30;14.60;;;16.60;1.00;;;;;;5074700;28;20488;-64
2024/03/10 11:50:36;;;;;;;16.27;14.67;;;16.40;1.00;;;;;;5074373;28;20464;-64
2024/03/10 11:53:05;;;;;;;16.63;15.03;;;16.40;1.00;;;;;;5074697;28;20459;-65
2024/03/10 11:55:33;;;;;;;16.90;15.27;;;16.60;1.00;;;;;;5073089;28;20449;-65
2024/03/10 11:58:01;;;;;;;18.90;16.03;;;16.50;1.00;;;;;;5073905;28;20528;-66
2024/03/10 12:00:29;;;;;;;20.00;18.00;;;16.40;1.00;;;;;;5075498;28;20459;-64
2024/03/10 12:02:57;;;;;;;18.43;16.60;;;16.20;1.00;;;;;;5075623;28;20467;-63
2024/03/10 12:05:25;;;;;;;19.47;17.67;;;16.10;1.00;;;;;;5075769;28;20489;-65
2024/03/10 12:07:54;;;;;;;19.40;17.40;;;16.10;1.00;;;;;;5074836;28;21049;-64
2024/03/10 12:10:24;;;;;;;18.17;16.43;;;16.10;1.00;;;;;;5074081;28;20461;-64
2024/03/10 12:12:53;;;;;;;19.30;17.40;;;16.10;1.00;;;;;;5074804;28;20934;-64
2024/03/10 12:15:22;;;;;;;18.00;16.20;;;16.10;1.00;;;;;;5074172;28;20772;-64
2024/03/10 12:17:50;;;;;;;19.60;17.60;;;16.00;1.00;;;;;;5073968;28;20424;-64
2024/03/10 12:20:18;;;;;;;19.27;17.27;;;15.90;1.00;;;;;;5074030;28;20460;-64
2024/03/10 12:22:46;;;;;;;18.97;17.07;;;15.80;1.00;;;;;;5074195;28;20457;-64
2024/03/10 12:25:14;;;;;;;20.27;18.33;;;16.00;1.00;;;;;;5074159;28;20540;-66
2024/03/10 12:27:43;;;;;;;18.60;16.70;;;16.40;1.00;;;;;;5074306;28;20801;-64
2024/03/10 12:30:12;;;;;;;19.43;17.20;;;16.60;1.00;;;;;;5074629;28;20556;-64
2024/03/10 12:32:44;;;;;;;19.53;17.60;;;16.70;1.00;;;;;;5074415;28;20453;-64
2024/03/10 12:35:13;;;;;;;18.23;16.43;;;16.40;1.00;;;;;;5073678;28;20449;-64
2024/03/10 12:37:42;;;;;;;19.80;17.90;;;16.30;1.00;;;;;;5074739;28;20765;-64
2024/03/10 12:40:14;;;;;;;22.90;19.43;;;16.30;1.00;;;;;;5078753;28;20943;-64
2024/03/10 12:42:46;;;;;;;18.90;17.10;;;16.50;1.00;;;;;;5078570;28;20885;-65
2024/03/10 12:45:20;;;;;;;19.50;17.50;;;16.50;1.00;;;;;;5080328;28;20485;-65
2024/03/10 12:47:50;;;;;;;20.60;18.40;;;16.50;1.00;;;;;;5078567;28;20511;-65
2024/03/10 12:50:18;;;;;;;21.47;19.30;;;16.40;1.00;;;;;;5077899;28;20467;-65
2024/03/10 12:52:46;;;;;;;21.67;19.43;;;16.00;1.00;;;;;;5077429;28;20465;-64
2024/03/10 12:55:15;;;;;;;20.67;18.57;;;15.90;1.00;;;;;;5077875;28;20492;-64
2024/03/10 12:57:44;;;;;;;20.77;18.70;;;16.00;1.00;;;;;;5078433;28;20569;-65
2024/03/10 13:00:22;;;;;;;20.80;18.80;;;16.00;1.00;;;;;;5079548;28;20751;-65
2024/03/10 13:02:50;;;;;;;20.80;18.80;;;16.00;1.00;;;;;;5079284;28;20461;-65
2024/03/10 13:05:18;;;;;;;22.03;19.83;;;16.00;1.00;;;;;;5079711;28;20898;-64
2024/03/10 13:07:45;;;;;;;22.53;20.23;;;16.00;1.00;;;;;;5077896;28;20485;-64
2024/03/10 13:10:14;;;;;;;22.63;20.43;;;16.00;1.00;;;;;;5077868;28;20483;-65
2024/03/10 13:12:44;;;;;;;22.17;19.83;;;16.00;1.00;;;;;;5078029;28;20874;-65